createdAt,value
2022-12-09T00:00:26.099Z,4.28
2022-12-09T00:01:14.150Z,4.18
2022-12-09T00:02:01.121Z,4.25
2022-12-09T00:02:48.142Z,4.34
2022-12-09T00:03:36.116Z,4.40
2022-12-09T00:04:23.291Z,4.43
2022-12-09T00:05:10.453Z,4.39
2022-12-09T00:05:57.722Z,4.29
2022-12-09T00:06:44.711Z,4.25
2022-12-09T00:07:31.877Z,4.20
2022-12-09T00:08:18.954Z,4.27
2022-12-09T00:09:06.269Z,4.36
2022-12-09T00:09:53.251Z,4.37
2022-12-09T00:10:43.843Z,4.22
2022-12-09T00:11:30.804Z,4.13
2022-12-09T00:12:17.657Z,4.24
2022-12-09T00:13:04.459Z,4.33
2022-12-09T00:13:55.681Z,4.33
2022-12-09T00:14:42.910Z,4.21
2022-12-09T00:15:29.892Z,4.14
2022-12-09T00:16:17.513Z,4.29
2022-12-09T00:17:04.671Z,4.45
2022-12-09T00:17:51.890Z,4.54
2022-12-09T00:18:39.619Z,4.50
2022-12-09T00:19:26.769Z,4.47
2022-12-09T00:20:14.113Z,4.52
2022-12-09T00:21:32.388Z,4.37
2022-12-09T00:22:19.475Z,4.42
2022-12-09T00:23:06.615Z,4.30
2022-12-09T00:23:54.971Z,4.25
2022-12-09T00:24:42.007Z,4.38
2022-12-09T00:25:29.147Z,4.44
2022-12-09T00:26:17.291Z,4.43
2022-12-09T00:27:04.339Z,4.43
2022-12-09T00:27:51.395Z,4.30
2022-12-09T00:28:39.107Z,4.36
2022-12-09T00:29:26.629Z,4.40
2022-12-09T00:30:13.673Z,4.34
2022-12-09T00:31:01.740Z,4.38
2022-12-09T00:31:48.950Z,4.47
2022-12-09T00:32:35.916Z,4.57
2022-12-09T00:33:22.959Z,4.59
2022-12-09T00:34:12.722Z,4.50
2022-12-09T00:34:59.719Z,4.47
2022-12-09T00:35:46.576Z,4.47
2022-12-09T00:36:33.941Z,4.36
2022-12-09T00:37:21.063Z,4.35
2022-12-09T00:38:08.162Z,4.46
2022-12-09T00:38:56.361Z,4.32
2022-12-09T00:39:43.173Z,4.27
2022-12-09T00:40:30.077Z,4.32
2022-12-09T00:41:17.683Z,4.46
2022-12-09T00:42:04.526Z,4.44
2022-12-09T00:42:51.690Z,4.34
2022-12-09T00:43:39.004Z,4.44
2022-12-09T00:44:26.091Z,4.46
2022-12-09T00:45:13.112Z,4.53
2022-12-09T00:46:00.144Z,4.56
2022-12-09T00:46:47.586Z,4.54
2022-12-09T00:47:35.254Z,4.59
2022-12-09T00:48:22.396Z,4.64
2022-12-09T00:49:10.992Z,4.69
2022-12-09T00:49:57.871Z,4.45
2022-12-09T00:50:46.286Z,4.26
2022-12-09T00:51:33.221Z,4.12
2022-12-09T00:52:20.127Z,4.23
2022-12-09T00:53:07.285Z,4.21
2022-12-09T00:53:57.182Z,4.22
2022-12-09T00:54:44.307Z,4.29
2022-12-09T00:55:31.208Z,4.37
2022-12-09T00:56:18.163Z,4.48
2022-12-09T00:57:05.118Z,4.55
2022-12-09T00:57:52.056Z,4.46
2022-12-09T00:58:38.951Z,4.43
2022-12-09T00:59:26.033Z,4.22
2022-12-09T01:00:13.323Z,4.15
2022-12-09T01:01:00.463Z,4.27
2022-12-09T01:01:47.759Z,4.24
2022-12-09T01:02:36.795Z,4.06
2022-12-09T01:03:24.229Z,3.95
2022-12-09T01:04:11.183Z,4.08
2022-12-09T01:04:58.231Z,4.07
2022-12-09T01:05:45.404Z,4.06
2022-12-09T01:06:32.296Z,3.99
2022-12-09T01:07:19.405Z,4.06
2022-12-09T01:08:06.380Z,4.05
2022-12-09T01:08:53.784Z,4.19
2022-12-09T01:09:40.821Z,4.27
2022-12-09T01:10:27.690Z,4.19
2022-12-09T01:11:20.650Z,4.24
2022-12-09T01:12:07.480Z,4.24
2022-12-09T01:12:54.537Z,4.24
2022-12-09T01:13:41.441Z,4.33
2022-12-09T01:14:28.342Z,4.31
2022-12-09T01:15:15.447Z,4.36
2022-12-09T01:16:02.720Z,4.35
2022-12-09T01:16:49.856Z,4.26
2022-12-09T01:17:38.041Z,4.33
2022-12-09T01:18:24.965Z,4.33
2022-12-09T01:19:14.118Z,4.37
2022-12-09T01:20:01.234Z,4.36
2022-12-09T01:20:56.791Z,4.27
2022-12-09T01:21:43.766Z,4.42
2022-12-09T01:22:30.597Z,4.51
2022-12-09T01:23:17.452Z,4.59
2022-12-09T01:24:11.618Z,4.49
2022-12-09T01:24:59.104Z,4.43
2022-12-09T01:25:45.968Z,4.44
2022-12-09T01:26:33.306Z,4.46
2022-12-09T01:27:20.325Z,4.52
2022-12-09T01:28:07.313Z,4.48
2022-12-09T01:28:56.024Z,4.49
2022-12-09T01:29:43.334Z,4.57
2022-12-09T01:30:30.185Z,4.61
2022-12-09T01:31:20.165Z,4.68
2022-12-09T01:32:07.462Z,4.67
2022-12-09T01:32:54.569Z,4.65
2022-12-09T01:33:42.555Z,4.65
2022-12-09T01:34:29.485Z,4.34
2022-12-09T01:35:16.684Z,4.26
2022-12-09T01:36:11.388Z,4.22
2022-12-09T01:36:58.224Z,4.16
2022-12-09T01:37:45.157Z,4.17
2022-12-09T01:38:32.102Z,4.39
2022-12-09T01:39:19.102Z,4.35
2022-12-09T01:40:09.359Z,4.38
2022-12-09T01:40:56.567Z,4.26
2022-12-09T01:41:43.512Z,4.34
2022-12-09T01:42:30.422Z,4.44
2022-12-09T01:43:19.125Z,4.57
2022-12-09T01:44:16.399Z,4.66
2022-12-09T01:45:30.666Z,4.65
2022-12-09T01:46:17.688Z,4.60
2022-12-09T01:47:04.760Z,4.67
2022-12-09T01:47:54.978Z,4.63
2022-12-09T01:48:44.722Z,4.56
2022-12-09T01:49:31.809Z,4.36
2022-12-09T01:50:18.865Z,4.46
2022-12-09T01:51:12.386Z,4.45
2022-12-09T01:52:11.615Z,4.52
2022-12-09T01:52:58.734Z,4.56
2022-12-09T01:53:48.547Z,4.64
2022-12-09T01:54:35.451Z,4.61
2022-12-09T01:55:22.790Z,4.62
2022-12-09T01:56:15.155Z,4.61
2022-12-09T01:57:02.569Z,4.64
2022-12-09T01:57:49.548Z,4.61
2022-12-09T01:58:36.758Z,4.68
2022-12-09T01:59:24.246Z,4.70
2022-12-09T02:00:12.726Z,4.70
2022-12-09T02:00:59.972Z,4.70
2022-12-09T02:01:50.771Z,4.70
2022-12-09T02:02:38.872Z,4.67
2022-12-09T02:03:26.125Z,4.63
2022-12-09T02:04:13.163Z,4.54
2022-12-09T02:05:00.088Z,4.46
2022-12-09T02:05:48.208Z,4.54
2022-12-09T02:06:38.539Z,4.53
2022-12-09T02:07:27.174Z,4.52
2022-12-09T02:08:16.682Z,4.48
2022-12-09T02:09:04.324Z,4.66
2022-12-09T02:09:53.427Z,4.63
2022-12-09T02:10:51.288Z,4.70
2022-12-09T02:11:48.930Z,4.56
2022-12-09T02:12:57.529Z,4.52
2022-12-09T02:13:50.417Z,4.54
2022-12-09T02:14:41.412Z,4.62
2022-12-09T02:15:38.186Z,4.61
2022-12-09T02:16:26.961Z,4.56
2022-12-09T02:17:28.078Z,4.55
2022-12-09T02:18:42.152Z,4.44
2022-12-09T02:19:53.770Z,4.49
2022-12-09T02:21:11.888Z,4.55
2022-12-09T02:22:00.084Z,4.70
2022-12-09T02:22:57.794Z,4.73
2022-12-09T02:24:01.896Z,4.69
2022-12-09T02:25:12.093Z,4.39
2022-12-09T02:26:19.117Z,4.40
2022-12-09T02:27:31.187Z,4.53
2022-12-09T02:28:42.522Z,4.63
2022-12-09T02:29:59.016Z,4.70
2022-12-09T02:31:10.428Z,4.74
2022-12-09T02:32:14.032Z,4.79
2022-12-09T02:33:19.178Z,4.80
2022-12-09T02:34:36.213Z,4.78
2022-12-09T02:35:42.886Z,4.74
2022-12-09T02:36:34.401Z,4.75
2022-12-09T02:37:25.887Z,4.74
2022-12-09T02:38:26.536Z,4.81
2022-12-09T02:39:13.985Z,4.79
2022-12-09T02:40:03.073Z,4.76
2022-12-09T02:41:02.099Z,4.76
2022-12-09T02:41:49.792Z,4.84
2022-12-09T02:42:38.573Z,4.83
2022-12-09T02:43:30.774Z,4.81
2022-12-09T02:44:20.018Z,4.84
2022-12-09T02:45:08.866Z,4.89
2022-12-09T02:45:56.683Z,4.76
2022-12-09T02:46:44.507Z,4.72
2022-12-09T02:47:34.008Z,4.77
2022-12-09T02:48:24.543Z,4.84
2022-12-09T02:49:12.978Z,4.85
2022-12-09T02:50:02.941Z,4.84
2022-12-09T02:50:51.796Z,4.80
2022-12-09T02:51:42.463Z,4.82
2022-12-09T02:52:30.434Z,4.71
2022-12-09T02:53:18.510Z,4.60
2022-12-09T02:54:14.675Z,4.34
2022-12-09T02:55:04.363Z,4.32
2022-12-09T02:55:52.030Z,4.41
2022-12-09T02:56:42.302Z,4.46
2022-12-09T02:57:30.805Z,4.53
2022-12-09T02:58:17.876Z,4.55
2022-12-09T02:59:04.733Z,4.60
2022-12-09T02:59:51.847Z,4.60
2022-12-09T03:00:40.214Z,4.66
2022-12-09T03:01:33.147Z,4.68
2022-12-09T03:02:36.737Z,4.71
2022-12-09T03:03:24.356Z,4.77
2022-12-09T03:04:16.364Z,4.61
2022-12-09T03:05:25.039Z,4.50
2022-12-09T03:06:16.245Z,4.45
2022-12-09T03:07:25.355Z,4.32
2022-12-09T03:08:24.705Z,4.53
2022-12-09T03:09:15.969Z,4.43
2022-12-09T03:10:09.878Z,4.52
2022-12-09T03:11:01.217Z,4.49
2022-12-09T03:11:48.682Z,4.55
2022-12-09T03:12:35.756Z,4.61
2022-12-09T03:13:31.541Z,4.48
2022-12-09T03:14:26.201Z,4.31
2022-12-09T03:15:14.879Z,4.41
2022-12-09T03:16:20.054Z,4.30
2022-12-09T03:17:17.997Z,4.39
2022-12-09T03:18:07.979Z,4.40
2022-12-09T03:18:59.122Z,4.28
2022-12-09T03:19:58.306Z,4.27
2022-12-09T03:20:46.206Z,4.15
2022-12-09T03:21:35.186Z,4.29
2022-12-09T03:22:26.032Z,4.35
2022-12-09T03:23:16.113Z,4.40
2022-12-09T03:24:03.260Z,4.36
2022-12-09T03:24:57.708Z,4.33
2022-12-09T03:25:47.124Z,4.30
2022-12-09T03:26:35.122Z,4.27
2022-12-09T03:27:45.032Z,4.18
2022-12-09T03:28:35.946Z,4.33
2022-12-09T03:29:25.603Z,4.39
2022-12-09T03:30:13.952Z,4.46
2022-12-09T03:31:04.618Z,4.50
2022-12-09T03:31:53.200Z,4.53
2022-12-09T03:32:41.844Z,4.39
2022-12-09T03:33:29.612Z,4.42
2022-12-09T03:34:19.442Z,4.35
2022-12-09T03:35:12.027Z,4.48
2022-12-09T03:36:02.548Z,4.55
2022-12-09T03:36:51.372Z,4.53
2022-12-09T03:37:39.952Z,4.57
2022-12-09T03:38:29.405Z,4.40
2022-12-09T03:39:19.226Z,4.38
2022-12-09T03:40:13.666Z,4.34
2022-12-09T03:41:07.455Z,4.38
2022-12-09T03:41:57.333Z,4.34
2022-12-09T03:42:55.150Z,4.26
2022-12-09T03:43:48.175Z,4.23
2022-12-09T03:45:07.612Z,4.35
2022-12-09T03:45:55.616Z,4.23
2022-12-09T03:46:43.427Z,4.22
2022-12-09T03:47:30.440Z,4.06
2022-12-09T03:48:17.322Z,4.04
2022-12-09T03:49:04.378Z,4.05
2022-12-09T03:49:51.302Z,4.08
2022-12-09T03:50:47.889Z,4.15
2022-12-09T03:51:43.358Z,3.93
2022-12-09T03:52:34.849Z,3.96
2022-12-09T03:53:41.784Z,4.04
2022-12-09T03:54:30.465Z,4.05
2022-12-09T03:55:24.403Z,4.16
2022-12-09T03:56:19.693Z,4.00
2022-12-09T03:57:07.012Z,4.06
2022-12-09T03:57:56.791Z,4.19
2022-12-09T03:58:45.378Z,4.23
2022-12-09T03:59:35.023Z,4.27
2022-12-09T04:00:21.850Z,4.28
2022-12-09T04:01:10.658Z,4.17
2022-12-09T04:01:58.065Z,4.04
2022-12-09T04:02:45.600Z,4.00
2022-12-09T04:03:33.980Z,3.96
2022-12-09T04:04:21.204Z,3.93
2022-12-09T04:05:09.449Z,3.98
2022-12-09T04:05:56.468Z,4.00
2022-12-09T04:06:43.595Z,4.08
2022-12-09T04:07:30.935Z,4.21
2022-12-09T04:08:18.169Z,4.06
2022-12-09T04:09:06.029Z,4.08
2022-12-09T04:09:53.090Z,4.03
2022-12-09T04:10:40.304Z,4.17
2022-12-09T04:11:27.545Z,4.14
2022-12-09T04:12:14.585Z,4.12
2022-12-09T04:13:01.521Z,4.08
2022-12-09T04:13:48.399Z,4.16
2022-12-09T04:14:35.789Z,4.24
2022-12-09T04:15:22.810Z,4.17
2022-12-09T04:16:10.207Z,4.14
2022-12-09T04:16:57.555Z,4.17
2022-12-09T04:17:44.597Z,4.21
2022-12-09T04:18:31.587Z,4.23
2022-12-09T04:19:18.830Z,4.14
2022-12-09T04:20:07.516Z,4.11
2022-12-09T04:20:55.002Z,4.16
2022-12-09T04:21:42.059Z,4.22
2022-12-09T04:22:30.215Z,3.98
2022-12-09T04:23:17.035Z,3.81
2022-12-09T04:24:04.138Z,3.85
2022-12-09T04:24:51.273Z,4.02
2022-12-09T04:25:38.505Z,4.11
2022-12-09T04:26:25.867Z,4.13
2022-12-09T04:27:13.399Z,4.18
2022-12-09T04:28:00.227Z,4.01
2022-12-09T04:28:47.565Z,3.95
2022-12-09T04:29:34.399Z,3.96
2022-12-09T04:30:21.934Z,3.98
2022-12-09T04:31:16.504Z,3.92
2022-12-09T04:32:03.654Z,3.90
2022-12-09T04:32:50.981Z,3.85
2022-12-09T04:33:38.104Z,3.96
2022-12-09T04:34:25.316Z,4.08
2022-12-09T04:35:12.511Z,3.99
2022-12-09T04:36:08.121Z,4.06
2022-12-09T04:36:54.963Z,4.14
2022-12-09T04:37:41.999Z,4.18
2022-12-09T04:38:28.879Z,4.23
2022-12-09T04:39:15.844Z,4.26
2022-12-09T04:40:02.768Z,4.29
2022-12-09T04:40:49.644Z,4.21
2022-12-09T04:41:36.964Z,4.08
2022-12-09T04:42:24.324Z,4.14
2022-12-09T04:43:11.419Z,4.21
2022-12-09T04:43:58.571Z,4.23
2022-12-09T04:44:45.841Z,4.17
2022-12-09T04:45:32.711Z,4.14
2022-12-09T04:46:19.854Z,4.22
2022-12-09T04:47:07.094Z,4.16
2022-12-09T04:47:54.156Z,4.04
2022-12-09T04:48:41.345Z,4.14
2022-12-09T04:49:28.239Z,4.05
2022-12-09T04:50:15.321Z,3.97
2022-12-09T04:51:03.047Z,3.92
2022-12-09T04:51:50.333Z,3.84
2022-12-09T04:52:37.341Z,3.82
2022-12-09T04:53:24.471Z,3.78
2022-12-09T04:54:13.978Z,3.86
2022-12-09T04:55:01.046Z,3.97
2022-12-09T04:55:48.376Z,3.96
2022-12-09T04:56:35.295Z,3.93
2022-12-09T04:57:22.239Z,4.02
2022-12-09T04:58:09.069Z,4.11
2022-12-09T04:58:56.067Z,4.22
2022-12-09T04:59:42.908Z,4.29
2022-12-09T05:00:30.164Z,4.30
2022-12-09T05:01:24.789Z,4.33
2022-12-09T05:02:15.601Z,4.36
2022-12-09T05:03:02.617Z,4.35
2022-12-09T05:03:51.755Z,4.27
2022-12-09T05:04:38.887Z,4.29
2022-12-09T05:05:26.304Z,4.30
2022-12-09T05:06:14.813Z,4.36
2022-12-09T05:07:02.284Z,4.38
2022-12-09T05:07:49.460Z,4.40
2022-12-09T05:08:36.915Z,4.43
2022-12-09T05:09:23.976Z,4.37
2022-12-09T05:10:11.749Z,4.32
2022-12-09T05:10:59.462Z,4.26
2022-12-09T05:11:46.887Z,4.35
2022-12-09T05:12:34.426Z,4.42
2022-12-09T05:13:21.497Z,4.33
2022-12-09T05:14:08.557Z,4.34
2022-12-09T05:14:55.758Z,4.41
2022-12-09T05:15:42.959Z,4.44
2022-12-09T05:16:30.381Z,4.52
2022-12-09T05:17:17.507Z,4.51
2022-12-09T05:18:05.285Z,4.54
2022-12-09T05:18:52.540Z,4.54
2022-12-09T05:19:39.468Z,4.58
2022-12-09T05:20:29.891Z,4.49
2022-12-09T05:21:19.563Z,4.46
2022-12-09T05:22:06.472Z,4.41
2022-12-09T05:22:53.772Z,4.27
2022-12-09T05:23:41.168Z,4.28
2022-12-09T05:24:28.462Z,4.29
2022-12-09T05:25:15.701Z,4.31
2022-12-09T05:26:05.185Z,4.40
2022-12-09T05:26:52.492Z,4.37
2022-12-09T05:27:40.063Z,4.34
2022-12-09T05:28:27.440Z,4.43
2022-12-09T05:29:20.812Z,4.48
2022-12-09T05:30:10.341Z,4.49
2022-12-09T05:31:02.603Z,4.51
2022-12-09T05:31:52.480Z,4.30
2022-12-09T05:32:40.021Z,4.28
2022-12-09T05:33:27.984Z,4.30
2022-12-09T05:34:15.152Z,4.20
2022-12-09T05:35:02.691Z,4.29
2022-12-09T05:35:53.011Z,4.40
2022-12-09T05:36:40.466Z,4.45
2022-12-09T05:37:27.554Z,4.27
2022-12-09T05:38:14.633Z,4.27
2022-12-09T05:39:01.613Z,4.23
2022-12-09T05:39:49.261Z,4.34
2022-12-09T05:40:37.588Z,4.44
2022-12-09T05:41:25.366Z,4.44
2022-12-09T05:42:12.223Z,4.48
2022-12-09T05:42:59.525Z,4.42
2022-12-09T05:43:46.626Z,4.46
2022-12-09T05:44:33.914Z,4.48
2022-12-09T05:45:20.845Z,4.45
2022-12-09T05:46:08.596Z,4.50
2022-12-09T05:46:55.795Z,4.22
2022-12-09T05:47:43.257Z,4.25
2022-12-09T05:48:30.751Z,4.30
2022-12-09T05:49:18.125Z,4.32
2022-12-09T05:50:08.516Z,4.15
2022-12-09T05:51:03.569Z,4.16
2022-12-09T05:51:50.857Z,4.00
2022-12-09T05:52:38.480Z,4.17
2022-12-09T05:53:25.905Z,4.18
2022-12-09T05:54:12.993Z,4.03
2022-12-09T05:55:00.345Z,4.07
2022-12-09T05:55:47.552Z,4.11
2022-12-09T05:56:34.756Z,4.11
2022-12-09T05:57:23.467Z,4.17
2022-12-09T05:58:10.500Z,4.24
2022-12-09T05:58:57.803Z,4.22
2022-12-09T05:59:44.831Z,4.22
2022-12-09T06:00:31.947Z,4.35
2022-12-09T06:01:19.960Z,4.43
2022-12-09T06:02:09.909Z,4.52
2022-12-09T06:02:57.626Z,4.55
2022-12-09T06:03:50.118Z,4.44
2022-12-09T06:04:37.647Z,4.47
2022-12-09T06:05:24.746Z,4.34
2022-12-09T06:06:15.068Z,4.37
2022-12-09T06:07:02.808Z,4.33
2022-12-09T06:07:49.928Z,4.39
2022-12-09T06:08:38.072Z,4.38
2022-12-09T06:09:25.656Z,4.36
2022-12-09T06:10:13.168Z,4.38
2022-12-09T06:11:00.565Z,4.30
2022-12-09T06:11:47.913Z,4.20
2022-12-09T06:12:35.652Z,4.27
2022-12-09T06:13:22.830Z,4.23
2022-12-09T06:14:11.533Z,4.08
2022-12-09T06:14:58.925Z,4.11
2022-12-09T06:15:46.287Z,4.07
2022-12-09T06:16:33.431Z,4.13
2022-12-09T06:17:20.841Z,4.17
2022-12-09T06:18:08.154Z,3.97
2022-12-09T06:18:55.465Z,4.03
2022-12-09T06:19:43.141Z,4.21
2022-12-09T06:20:30.590Z,4.12
2022-12-09T06:21:19.136Z,4.21
2022-12-09T06:22:06.119Z,4.15
2022-12-09T06:22:53.052Z,4.20
2022-12-09T06:23:43.898Z,4.06
2022-12-09T06:24:31.471Z,4.05
2022-12-09T06:25:18.692Z,4.20
2022-12-09T06:26:06.352Z,4.19
2022-12-09T06:26:54.437Z,4.29
2022-12-09T06:27:41.702Z,4.38
2022-12-09T06:28:28.576Z,4.36
2022-12-09T06:29:15.840Z,4.27
2022-12-09T06:30:03.512Z,4.20
2022-12-09T06:30:50.654Z,4.26
2022-12-09T06:31:38.017Z,4.16
2022-12-09T06:32:25.223Z,4.21
2022-12-09T06:33:36.793Z,4.12
2022-12-09T06:34:19.461Z,4.13
2022-12-09T06:35:09.750Z,4.14
2022-12-09T06:36:00.759Z,4.17
2022-12-09T06:36:48.039Z,4.23
2022-12-09T06:37:34.975Z,4.17
2022-12-09T06:38:22.023Z,4.17
2022-12-09T06:39:11.066Z,4.26
2022-12-09T06:39:58.368Z,4.35
2022-12-09T06:40:45.955Z,4.37
2022-12-09T06:41:33.387Z,4.34
2022-12-09T06:42:20.611Z,4.30
2022-12-09T06:43:08.073Z,4.30
2022-12-09T06:43:58.455Z,4.27
2022-12-09T06:44:46.036Z,4.29
2022-12-09T06:45:33.221Z,4.18
2022-12-09T06:46:25.384Z,4.15
2022-12-09T06:47:13.259Z,4.09
2022-12-09T06:48:00.312Z,4.23
2022-12-09T06:48:47.368Z,4.25
2022-12-09T06:49:35.252Z,4.24
2022-12-09T06:50:22.378Z,4.30
2022-12-09T06:51:09.730Z,4.33
2022-12-09T06:51:57.028Z,4.34
2022-12-09T06:52:44.212Z,4.38
2022-12-09T06:53:31.183Z,4.40
2022-12-09T06:54:18.659Z,4.45
2022-12-09T06:55:07.293Z,4.25
2022-12-09T06:55:54.697Z,4.26
2022-12-09T06:56:41.878Z,4.32
2022-12-09T06:57:28.859Z,4.19
2022-12-09T06:58:16.174Z,4.19
2022-12-09T06:59:07.140Z,4.22
2022-12-09T06:59:54.469Z,4.38
2022-12-09T07:00:41.553Z,4.43
2022-12-09T07:01:29.297Z,4.35
2022-12-09T07:02:18.805Z,4.32
2022-12-09T07:03:05.911Z,4.40
2022-12-09T07:03:55.726Z,4.42
2022-12-09T07:04:43.440Z,4.44
2022-12-09T07:05:30.729Z,4.30
2022-12-09T07:06:32.731Z,4.10
2022-12-09T07:07:20.239Z,4.14
2022-12-09T07:08:07.677Z,4.19
2022-12-09T07:08:55.641Z,4.21
2022-12-09T07:09:42.777Z,4.22
2022-12-09T07:10:29.977Z,4.24
2022-12-09T07:11:17.584Z,4.26
2022-12-09T07:12:04.875Z,4.14
2022-12-09T07:12:51.934Z,4.13
2022-12-09T07:13:39.281Z,4.09
2022-12-09T07:14:26.344Z,4.16
2022-12-09T07:15:15.136Z,4.14
2022-12-09T07:16:02.382Z,4.13
2022-12-09T07:16:50.527Z,4.23
2022-12-09T07:17:37.850Z,4.34
2022-12-09T07:18:25.195Z,4.27
2022-12-09T07:19:18.239Z,4.14
2022-12-09T07:20:07.493Z,4.18
2022-12-09T07:20:55.240Z,4.31
2022-12-09T07:21:42.400Z,4.50
2022-12-09T07:22:29.581Z,4.56
2022-12-09T07:23:17.189Z,4.49
2022-12-09T07:24:04.618Z,4.42
2022-12-09T07:24:51.649Z,4.35
2022-12-09T07:25:38.522Z,4.28
2022-12-09T07:26:25.655Z,4.37
2022-12-09T07:27:19.218Z,4.31
2022-12-09T07:28:06.841Z,4.26
2022-12-09T07:28:53.832Z,4.27
2022-12-09T07:29:40.822Z,4.30
2022-12-09T07:30:27.835Z,4.46
2022-12-09T07:31:22.390Z,4.47
2022-12-09T07:32:10.866Z,4.61
2022-12-09T07:32:58.160Z,4.50
2022-12-09T07:33:45.384Z,4.49
2022-12-09T07:34:32.466Z,4.49
2022-12-09T07:35:19.535Z,4.55
2022-12-09T07:36:07.150Z,4.66
2022-12-09T07:36:54.696Z,4.75
2022-12-09T07:37:41.973Z,4.82
2022-12-09T07:38:29.188Z,4.95
2022-12-09T07:39:17.997Z,4.97
2022-12-09T07:40:06.735Z,4.96
2022-12-09T07:40:54.205Z,4.90
2022-12-09T07:41:41.563Z,4.83
2022-12-09T07:42:29.017Z,4.98
2022-12-09T07:43:16.230Z,5.07
2022-12-09T07:44:03.550Z,5.09
2022-12-09T07:44:50.510Z,5.20
2022-12-09T07:45:38.217Z,5.28
2022-12-09T07:46:29.284Z,5.35
2022-12-09T07:47:17.222Z,5.43
2022-12-09T07:48:04.761Z,5.45
2022-12-09T07:48:51.978Z,5.47
2022-12-09T07:49:39.218Z,5.39
2022-12-09T07:50:26.779Z,5.36
2022-12-09T07:51:14.582Z,5.37
2022-12-09T07:52:01.553Z,5.52
2022-12-09T07:52:48.643Z,5.62
2022-12-09T07:53:37.305Z,5.47
2022-12-09T07:54:24.539Z,5.34
2022-12-09T07:55:11.757Z,5.29
2022-12-09T07:56:06.719Z,5.40
2022-12-09T07:56:53.699Z,5.51
2022-12-09T07:57:40.716Z,5.60
2022-12-09T07:58:28.643Z,5.53
2022-12-09T07:59:16.156Z,5.64
2022-12-09T08:00:04.943Z,5.61
2022-12-09T08:00:52.005Z,5.40
2022-12-09T08:01:39.454Z,5.40
2022-12-09T08:02:26.402Z,5.38
2022-12-09T08:03:13.915Z,5.46
2022-12-09T08:04:02.334Z,5.48
2022-12-09T08:04:49.481Z,5.29
2022-12-09T08:05:36.643Z,5.18
2022-12-09T08:06:26.244Z,5.28
2022-12-09T08:07:14.036Z,5.17
2022-12-09T08:08:01.883Z,5.19
2022-12-09T08:08:49.337Z,5.29
2022-12-09T08:09:36.823Z,5.43
2022-12-09T08:10:23.866Z,5.42
2022-12-09T08:11:13.599Z,5.53
2022-12-09T08:12:01.087Z,5.45
2022-12-09T08:12:48.218Z,5.36
2022-12-09T08:13:35.926Z,5.47
2022-12-09T08:14:23.380Z,5.31
2022-12-09T08:15:10.825Z,5.23
2022-12-09T08:16:05.985Z,5.19
2022-12-09T08:16:53.244Z,5.14
2022-12-09T08:17:41.287Z,5.22
2022-12-09T08:18:28.327Z,5.26
2022-12-09T08:19:16.263Z,5.39
2022-12-09T08:20:03.395Z,5.34
2022-12-09T08:20:50.942Z,5.24
2022-12-09T08:21:38.359Z,5.20
2022-12-09T08:22:25.443Z,5.22
2022-12-09T08:23:12.958Z,5.26
2022-12-09T08:24:03.235Z,5.11
2022-12-09T08:24:50.328Z,4.93
2022-12-09T08:25:37.432Z,4.82
2022-12-09T08:26:30.486Z,4.68
2022-12-09T08:27:17.769Z,4.69
2022-12-09T08:28:05.417Z,4.88
2022-12-09T08:28:53.236Z,4.88
2022-12-09T08:29:40.362Z,5.01
2022-12-09T08:30:27.674Z,5.11
2022-12-09T08:31:23.737Z,5.14
2022-12-09T08:32:12.008Z,5.16
2022-12-09T08:32:59.055Z,5.19
2022-12-09T08:33:46.549Z,5.27
2022-12-09T08:34:34.091Z,5.24
2022-12-09T08:35:21.180Z,5.33
2022-12-09T08:36:12.342Z,5.43
2022-12-09T08:37:02.195Z,5.34
2022-12-09T08:37:49.701Z,5.27
2022-12-09T08:38:36.593Z,5.28
2022-12-09T08:39:23.904Z,5.18
2022-12-09T08:40:12.385Z,5.32
2022-12-09T08:40:59.854Z,5.41
2022-12-09T08:41:47.293Z,5.51
2022-12-09T08:42:34.198Z,5.55
2022-12-09T08:43:21.436Z,5.69
2022-12-09T08:44:18.704Z,5.83
2022-12-09T08:45:06.221Z,5.81
2022-12-09T08:45:53.185Z,5.79
2022-12-09T08:46:42.950Z,5.80
2022-12-09T08:47:30.588Z,5.75
2022-12-09T08:48:18.371Z,5.83
2022-12-09T08:49:06.424Z,5.78
2022-12-09T08:49:54.265Z,5.71
2022-12-09T08:50:42.099Z,5.75
2022-12-09T08:51:30.437Z,5.91
2022-12-09T08:52:17.700Z,5.98
2022-12-09T08:53:04.724Z,6.10
2022-12-09T08:53:51.846Z,6.10
2022-12-09T08:54:40.823Z,6.17
2022-12-09T08:55:28.558Z,6.12
2022-12-09T08:56:15.687Z,6.25
2022-12-09T08:57:03.037Z,6.33
2022-12-09T08:57:50.168Z,6.47
2022-12-09T08:58:37.462Z,6.51
2022-12-09T08:59:25.283Z,6.51
2022-12-09T09:00:13.482Z,6.58
2022-12-09T09:01:00.867Z,6.65
2022-12-09T09:01:48.755Z,6.73
2022-12-09T09:02:36.489Z,6.78
2022-12-09T09:03:23.801Z,6.54
2022-12-09T09:04:13.709Z,6.51
2022-12-09T09:05:01.660Z,6.56
2022-12-09T09:05:48.825Z,6.59
2022-12-09T09:06:37.879Z,6.66
2022-12-09T09:07:25.574Z,6.72
2022-12-09T09:08:12.759Z,6.57
2022-12-09T09:09:00.099Z,6.57
2022-12-09T09:09:47.264Z,6.54
2022-12-09T09:10:36.778Z,6.54
2022-12-09T09:11:26.972Z,6.54
2022-12-09T09:12:14.114Z,6.54
2022-12-09T09:13:01.632Z,6.51
2022-12-09T09:13:51.797Z,6.48
2022-12-09T09:14:38.992Z,6.37
2022-12-09T09:15:25.876Z,6.29
2022-12-09T09:16:16.024Z,6.38
2022-12-09T09:17:03.546Z,6.29
2022-12-09T09:17:53.347Z,6.36
2022-12-09T09:18:41.194Z,6.43
2022-12-09T09:19:28.622Z,6.24
2022-12-09T09:20:16.395Z,6.22
2022-12-09T09:21:04.283Z,6.27
2022-12-09T09:21:51.676Z,6.28
2022-12-09T09:22:39.016Z,6.20
2022-12-09T09:23:26.270Z,6.20
2022-12-09T09:24:16.798Z,6.17
2022-12-09T09:25:04.131Z,6.14
2022-12-09T09:25:51.652Z,6.20
2022-12-09T09:26:42.865Z,6.27
2022-12-09T09:27:30.449Z,6.28
2022-12-09T09:28:19.469Z,6.33
2022-12-09T09:29:06.649Z,6.33
2022-12-09T09:29:53.650Z,6.33
2022-12-09T09:30:40.796Z,6.32
2022-12-09T09:31:28.259Z,6.33
2022-12-09T09:32:15.686Z,6.37
2022-12-09T09:33:02.770Z,6.43
2022-12-09T09:33:50.150Z,6.31
2022-12-09T09:34:38.024Z,6.34
2022-12-09T09:35:25.974Z,6.42
2022-12-09T09:36:23.990Z,6.41
2022-12-09T09:37:12.007Z,6.47
2022-12-09T09:37:59.399Z,6.49
2022-12-09T09:38:47.790Z,6.49
2022-12-09T09:39:34.899Z,6.44
2022-12-09T09:40:23.380Z,6.52
2022-12-09T09:41:38.668Z,6.57
2022-12-09T09:42:34.489Z,6.54
2022-12-09T09:43:24.466Z,6.33
2022-12-09T09:44:27.479Z,6.13
2022-12-09T09:45:19.902Z,6.21
2022-12-09T09:46:07.211Z,6.11
2022-12-09T09:46:56.399Z,5.89
2022-12-09T09:47:47.133Z,5.98
2022-12-09T09:48:34.284Z,6.02
2022-12-09T09:49:37.720Z,6.04
2022-12-09T09:50:31.166Z,6.05
2022-12-09T09:51:19.960Z,6.00
2022-12-09T09:52:23.917Z,5.99
2022-12-09T09:53:20.307Z,5.87
2022-12-09T09:54:09.957Z,5.81
2022-12-09T09:54:58.020Z,5.65
2022-12-09T09:55:50.417Z,5.61
2022-12-09T09:56:43.915Z,5.69
2022-12-09T09:57:43.800Z,5.73
2022-12-09T09:58:50.282Z,5.71
2022-12-09T10:00:23.208Z,5.69
2022-12-09T10:01:16.653Z,5.81
2022-12-09T10:02:13.139Z,5.86
2022-12-09T10:03:02.455Z,5.75
2022-12-09T10:04:31.587Z,5.73
2022-12-09T10:05:24.109Z,5.71
2022-12-09T10:06:41.447Z,5.63
2022-12-09T10:07:44.154Z,5.84
2022-12-09T10:08:56.355Z,5.87
2022-12-09T10:09:58.815Z,5.76
2022-12-09T10:11:19.756Z,5.78
2022-12-09T10:12:16.050Z,5.67
2022-12-09T10:13:25.686Z,5.84
2022-12-09T10:14:38.291Z,5.60
2022-12-09T10:15:31.311Z,5.65
2022-12-09T10:16:27.124Z,5.71
2022-12-09T10:17:31.283Z,5.74
2022-12-09T10:18:26.954Z,5.79
2022-12-09T10:19:36.381Z,5.88
2022-12-09T10:20:28.650Z,6.11
2022-12-09T10:21:18.137Z,6.18
2022-12-09T10:22:18.229Z,6.30
2022-12-09T10:23:09.729Z,6.34
2022-12-09T10:23:59.872Z,6.09
2022-12-09T10:24:59.152Z,6.06
2022-12-09T10:25:50.889Z,6.11
2022-12-09T10:26:38.713Z,5.98
2022-12-09T10:27:33.554Z,5.97
2022-12-09T10:28:23.839Z,5.70
2022-12-09T10:29:28.499Z,5.81
2022-12-09T10:30:17.500Z,5.90
2022-12-09T10:31:05.242Z,5.97
2022-12-09T10:31:52.315Z,5.86
2022-12-09T10:32:42.229Z,5.90
2022-12-09T10:33:32.430Z,5.87
2022-12-09T10:34:19.514Z,5.88
2022-12-09T10:35:25.784Z,5.93
2022-12-09T10:36:35.995Z,5.83
2022-12-09T10:37:36.296Z,5.66
2022-12-09T10:38:24.244Z,5.85
2022-12-09T10:39:22.006Z,5.89
2022-12-09T10:40:12.193Z,5.98
2022-12-09T10:41:06.539Z,5.98
2022-12-09T10:42:16.064Z,5.85
2022-12-09T10:43:36.256Z,5.79
2022-12-09T10:44:26.087Z,5.56
2022-12-09T10:45:13.534Z,5.45
2022-12-09T10:47:29.293Z,5.66
2022-12-09T10:48:32.672Z,5.68
2022-12-09T10:49:22.720Z,5.58
2022-12-09T10:50:26.961Z,5.72
2022-12-09T10:51:18.494Z,5.77
2022-12-09T10:52:06.441Z,5.66
2022-12-09T10:52:53.461Z,5.66
2022-12-09T10:53:49.565Z,5.63
2022-12-09T10:54:47.770Z,5.59
2022-12-09T10:55:40.468Z,5.58
2022-12-09T10:56:33.088Z,5.57
2022-12-09T10:57:25.926Z,5.64
2022-12-09T10:58:19.000Z,5.64
2022-12-09T10:59:19.697Z,5.55
2022-12-09T11:00:27.295Z,5.60
2022-12-09T11:01:16.716Z,5.70
2022-12-09T11:02:20.282Z,5.70
2022-12-09T11:03:26.354Z,5.63
2022-12-09T11:04:14.223Z,5.59
2022-12-09T11:05:25.794Z,5.32
2022-12-09T11:06:24.660Z,5.44
2022-12-09T11:07:26.099Z,5.46
2022-12-09T11:08:22.976Z,5.52